ADDS METAR Data INFO
IDs: Format: Raw Decoded Include TAF

Data at: 1055 UTC 24 Nov 2017

KCOM 241035Z AUTO 25004KT 10SM CLR 11/00 A2997 RMK AO2 T01060000
KCOM 241015Z AUTO 26004KT 10SM CLR 11/00 A2998 RMK AO2 T01090000
KCOM 240955Z AUTO 25005KT 10SM CLR 11/00 A2998 RMK AO2 T01090000
KCOM 240935Z AUTO 24006KT 10SM CLR 10/00 A2998 RMK AO2 T01020000
KCOM 240915Z AUTO 23004KT 10SM CLR 09/00 A2999 RMK AO2 T00900000
KCOM 240855Z AUTO 21005KT 10SM CLR 09/00 A2999 RMK AO2 T00870000
KCOM 240835Z AUTO 24003KT 10SM CLR 09/00 A2999 RMK AO2 T00900000
KCOM 240815Z AUTO 21003KT 10SM CLR 08/00 A2999 RMK AO2 T00801002
KCOM 240755Z AUTO 19003KT 10SM CLR 10/00 A3001 RMK AO2 T00950000
KCOM 240735Z AUTO 23004KT 10SM CLR 10/00 A3001 RMK AO2 T01030000
KCOM 240715Z AUTO 24003KT 10SM CLR 10/00 A3003 RMK AO2 T01030000
KCOM 240655Z AUTO 22003KT 10SM CLR 10/00 A3003 RMK AO2 T01010000
KCOM 240635Z AUTO 22003KT 10SM CLR 11/00 A3004 RMK AO2 T01060000
KCOM 240615Z AUTO 22003KT 10SM CLR 10/00 A3004 RMK AO2 T01030000
KCOM 240555Z AUTO 22004KT 10SM CLR 10/00 A3004 RMK AO2 T01030000 10175 20090 402200006
KCOM 240535Z AUTO 21003KT 10SM CLR 11/00 A3005 RMK AO2 T01080001
KCOM 240515Z AUTO 22003KT 10SM CLR 11/00 A3005 RMK AO2 T01080001
KCOM 240455Z AUTO 22004KT 10SM CLR 11/00 A3006 RMK AO2 T01060003
KCOM 240435Z AUTO 21005KT 10SM CLR 11/00 A3006 RMK AO2 T01070004
KCOM 240415Z AUTO 22004KT 10SM CLR 11/01 A3006 RMK AO2 T01090006
KCOM 240355Z AUTO 21004KT 10SM CLR 10/01 A3006 RMK AO2 T00960010
KCOM 240335Z AUTO 21003KT 10SM CLR 09/01 A3006 RMK AO2 T00900011
KCOM 240315Z AUTO 26003KT 10SM CLR 10/01 A3007 RMK AO2 T00960010
KCOM 240255Z AUTO 00000KT 10SM CLR 11/01 A3007 RMK AO2 T01050008
KCOM 240235Z AUTO 25004KT 10SM CLR 12/01 A3007 RMK AO2 T01160007
KCOM 240215Z AUTO 00000KT 10SM CLR 13/01 A3006 RMK AO2 T01250005
KCOM 240155Z AUTO 00000KT 10SM CLR 13/01 A3006 RMK AO2 T01290006
KCOM 240135Z AUTO 22003KT 10SM CLR 13/01 A3006 RMK AO2 T01310006
KCOM 240110Z AUTO 22003KT 10SM CLR 14/00 A3006 RMK AO2 T01410003
KCOM 240055Z AUTO 21004KT 10SM CLR 15/00 A3006 RMK AO2 T01460001
KCOM 240035Z AUTO 00000KT 10SM CLR 15/00 A3006 RMK AO2 T01500000
KCOM 240015Z AUTO 20003KT 10SM CLR 17/00 A3005 RMK AO2 T01670000
KCOM 232355Z AUTO 20003KT 10SM CLR 18/00 A3005 RMK AO2 T01750000 10220 20175
KCOM 232335Z AUTO 23003KT 10SM CLR 19/00 A3005 RMK AO2 T01900000
KCOM 232315Z AUTO 23003KT 10SM CLR 20/00 A3005 RMK AO2 T01970000
KCOM 232255Z AUTO 25004KT 10SM CLR 21/00 A3005 RMK AO2 T02121002
KCOM 232235Z AUTO 25005KT 10SM CLR 22/00 A3005 RMK AO2 T02161005
KCOM 232215Z AUTO 26004KT 10SM CLR 22/00 A3005 RMK AO2 T02181005
KCOM 232155Z AUTO 23005KT 10SM CLR 22/00 A3006 RMK AO2 T02201005
KCOM 232135Z AUTO 25003KT 10SM CLR 22/M01 A3006 RMK AO2 T02201007
KCOM 232115Z AUTO 25007KT 10SM CLR 22/00 A3006 RMK AO2 T02201004
KCOM 232055Z AUTO 23003KT 10SM CLR 22/M01 A3007 RMK AO2 T02181007
KCOM 232035Z AUTO 25009KT 10SM CLR 22/M01 A3007 RMK AO2 T02171007
KCOM 232015Z AUTO 24007KT 10SM CLR 22/M01 A3008 RMK AO2 T02151009
KCOM 231955Z AUTO 25006KT 10SM CLR 21/M01 A3009 RMK AO2 T02111010
KCOM 231935Z AUTO 27007KT 10SM CLR 21/M01 A3009 RMK AO2 T02071011
KCOM 231915Z AUTO 23005KT 10SM CLR 20/M01 A3011 RMK AO2 T02031014
KCOM 231855Z AUTO 21007KT 10SM CLR 20/M01 A3012 RMK AO2 T02011014
KCOM 231835Z AUTO 26008KT 10SM CLR 20/M02 A3013 RMK AO2 T01971017
KCOM 231815Z AUTO 26009KT 10SM CLR 20/M02 A3015 RMK AO2 T01961020
KCOM 231755Z AUTO 23008KT 10SM CLR 19/M02 A3015 RMK AO2 T01901022 10190 20012
KCOM 231735Z AUTO 23008KT 10SM CLR 19/M02 A3017 RMK AO2 T01861024
KCOM 231715Z AUTO 24009KT 10SM CLR 18/M03 A3018 RMK AO2 T01801028
KCOM 231655Z AUTO 25005KT 10SM CLR 17/M03 A3019 RMK AO2 T01731029
KCOM 231635Z AUTO 24008KT 10SM CLR 16/M03 A3020 RMK AO2 T01631032
KCOM 231615Z AUTO 23007KT 10SM CLR 16/M03 A3020 RMK AO2 T01601031
KCOM 231550Z AUTO 25006KT 10SM CLR 15/M03 A3020 RMK AO2 T01491031
KCOM 231530Z AUTO 27003KT 10SM CLR 13/M02 A3020 RMK AO2 T01301022
KCOM 231520Z AUTO 00000KT 10SM CLR 12/M02 A3021 RMK AO2 T01221023
KCOM 231455Z AUTO 00000KT 10SM CLR 09/M02 A3020 RMK AO2 T00911019
KCOM 231435Z AUTO 00000KT 10SM CLR 08/M02 A3020 RMK AO2 T00771016
KCOM 231410Z AUTO 00000KT 10SM CLR 06/M02 A3020 RMK AO2 T00591017
KCOM 231355Z AUTO 27003KT 10SM CLR 03/M02 A3020 RMK AO2 T00321016
KCOM 231335Z AUTO 00000KT 10SM CLR 03/M03 A3019 RMK AO2 T00271035
KCOM 231315Z AUTO 00000KT 10SM CLR 02/M04 A3020 RMK AO2 T00241037
KCOM 231255Z AUTO 27004KT 10SM CLR 03/M04 A3020 RMK AO2 T00261040
KCOM 231235Z AUTO 00000KT 10SM CLR 03/M04 A3019 RMK AO2 T00341036
KCOM 231215Z AUTO 25005KT 10SM CLR 03/M04 A3019 RMK AO2 T00251036
KCOM 231155Z AUTO 25004KT 10SM CLR 02/M03 A3020 RMK AO2 T00161032 10031 20006
KCOM 231135Z AUTO 26003KT 10SM CLR 02/M03 A3020 RMK AO2 T00171032
KCOM 231115Z AUTO 27003KT 10SM CLR 03/M04 A3020 RMK AO2 T00281042
KCOM 231055Z AUTO 27005KT 10SM CLR 02/M04 A3020 RMK AO2 T00221039
KCOM 231035Z AUTO 27005KT 10SM CLR 02/M04 A3020 RMK AO2 T00211039
KCOM 231015Z AUTO 27004KT 10SM CLR 02/M03 A3020 RMK AO2 T00181034
KCOM 230955Z AUTO 00000KT 10SM CLR 01/M03 A3020 RMK AO2 T00061027
KCOM 230935Z AUTO 00000KT 10SM CLR 02/M03 A3021 RMK AO2 T00151032
KCOM 230915Z AUTO 00000KT 10SM CLR 02/M03 A3022 RMK AO2 T00191035
KCOM 230855Z AUTO 00000KT 10SM CLR 02/M03 A3022 RMK AO2 T00151030
KCOM 230835Z AUTO 24003KT 10SM CLR 01/M03 A3022 RMK AO2 T00121027
KCOM 230815Z AUTO 26003KT 10SM CLR 02/M03 A3022 RMK AO2 T00161030
KCOM 230755Z AUTO 27005KT 10SM CLR 02/M03 A3022 RMK AO2 T00151033
KCOM 230735Z AUTO 28003KT 10SM CLR 02/M03 A3024 RMK AO2 T00151032
KCOM 230710Z AUTO 27003KT 10SM CLR 02/M03 A3025 RMK AO2 T00151031
KCOM 230655Z AUTO 28005KT 10SM CLR 02/M03 A3025 RMK AO2 T00151031
KCOM 230635Z AUTO 28006KT 10SM CLR 02/M03 A3025 RMK AO2 T00151031
KCOM 230615Z AUTO 28005KT 10SM CLR 02/M03 A3026 RMK AO2 T00201031
KCOM 230555Z AUTO 26004KT 10SM CLR 02/M03 A3026 RMK AO2 T00201034 10104 20020 401530020
KCOM 230535Z AUTO 27005KT 10SM CLR 02/M03 A3027 RMK AO2 T00231035
KCOM 230515Z AUTO 27005KT 10SM CLR 03/M04 A3027 RMK AO2 T00261036
KCOM 230455Z AUTO 28005KT 10SM CLR 03/M03 A3027 RMK AO2 T00301035
KCOM 230435Z AUTO 28006KT 10SM CLR 03/M03 A3028 RMK AO2 T00261030
KCOM 230415Z AUTO 30003KT 10SM CLR 03/M03 A3029 RMK AO2 T00341033
KCOM 230350Z AUTO 28003KT 10SM CLR 03/M04 A3029 RMK AO2 T00321037
KCOM 230335Z AUTO 00000KT 10SM CLR 04/M04 A3029 RMK AO2 T00391037
KCOM 230315Z AUTO 00000KT 10SM CLR 05/M04 A3028 RMK AO2 T00481042
KCOM 230255Z AUTO 00000KT 10SM CLR 04/M04 A3028 RMK AO2 T00431038
KCOM 230235Z AUTO 27005KT 10SM CLR 06/M05 A3028 RMK AO2 T00561047
KCOM 230215Z AUTO 27004KT 10SM CLR 06/M05 A3028 RMK AO2 T00591047
KCOM 230155Z AUTO 00000KT 10SM CLR 06/M05 A3028 RMK AO2 T00611047
KCOM 230135Z AUTO 29003KT 10SM CLR 08/M06 A3028 RMK AO2 T00761056
KCOM 230115Z AUTO 29006KT 10SM CLR 08/M06 A3028 RMK AO2 T00791056
KCOM 230055Z AUTO 28005KT 10SM CLR 08/M05 A3028 RMK AO2 T00801055
KCOM 230035Z AUTO 34003KT 10SM CLR 10/M06 A3028 RMK AO2 T00951063
KCOM 230015Z AUTO 00000KT 10SM CLR 09/M06 A3029 RMK AO2 T00931059
KCOM 222355Z AUTO 36004KT 10SM CLR 10/M06 A3029 RMK AO2 T01041062 10153 20102
KCOM 222335Z AUTO 34004KT 10SM CLR 10/M06 A3030 RMK AO2 T01031059
KCOM 222315Z AUTO 36006KT 10SM CLR 12/M06 A3029 RMK AO2 T01191063